Time;durP1;ratioP1;P1;durP2;ratioP2;P2;SDS_P1;SDS_P2;PMS_P1;PMS_P2;Temp;Humidity;BMP_temperature;BMP_pressure;BME280_temperature;BME280_humidity;BME280_pressure;Samples;Min_cycle;Max_cycle;Signal;HPM_P1;HPM_P2
2023/11/16 00:01:57;;;;;;;1.93;1.20;;;7.50;99.90;;;;;;4177137;28;20087;-57
2023/11/16 00:03:58;;;;;;;1.27;0.87;;;7.50;99.90;;;;;;4176726;28;20099;-58
2023/11/16 00:05:59;;;;;;;1.03;0.80;;;7.50;99.90;;;;;;4177432;28;20710;-62
2023/11/16 00:08:05;;;;;;;0.63;0.63;;;7.50;99.90;;;;;;4178074;28;20130;-63
2023/11/16 00:10:09;;;;;;;1.73;1.07;;;7.50;99.90;;;;;;4176989;28;20074;-60
2023/11/16 00:12:11;;;;;;;0.70;0.57;;;7.50;99.90;;;;;;4178608;28;20025;-59
2023/11/16 00:14:12;;;;;;;1.53;0.60;;;7.60;99.90;;;;;;4176456;28;20044;-59
2023/11/16 00:16:16;;;;;;;1.67;0.50;;;7.60;99.90;;;;;;4192078;28;20078;-59
2023/11/16 00:18:18;;;;;;;1.67;0.87;;;7.70;99.90;;;;;;4179108;28;20036;-57
2023/11/16 00:20:19;;;;;;;1.40;0.80;;;7.70;99.90;;;;;;4178413;28;20045;-62
2023/11/16 00:22:20;;;;;;;0.83;0.67;;;7.60;99.90;;;;;;4175761;28;20590;-61
2023/11/16 00:24:21;;;;;;;1.47;0.90;;;7.60;99.90;;;;;;4178067;28;20087;-61
2023/11/16 00:26:22;;;;;;;0.77;0.77;;;7.60;99.90;;;;;;4176920;28;20047;-62
2023/11/16 00:28:26;;;;;;;1.00;0.87;;;7.70;99.90;;;;;;4177782;28;20491;-62
2023/11/16 00:30:27;;;;;;;1.50;0.83;;;7.70;99.90;;;;;;4176543;28;20049;-60
2023/11/16 00:32:28;;;;;;;1.63;0.80;;;7.70;99.90;;;;;;4177391;28;20041;-63
2023/11/16 00:34:29;;;;;;;0.97;0.60;;;7.70;99.90;;;;;;4177263;28;20036;-59
2023/11/16 00:36:30;;;;;;;1.97;1.17;;;7.70;99.90;;;;;;4177309;28;20505;-57
2023/11/16 00:38:32;;;;;;;2.50;0.80;;;7.70;99.90;;;;;;4177791;28;20478;-61
2023/11/16 00:40:33;;;;;;;1.23;0.90;;;7.70;99.90;;;;;;4176552;28;20045;-58
2023/11/16 00:42:36;;;;;;;1.20;0.87;;;7.70;99.90;;;;;;4177354;28;20071;-59
2023/11/16 00:44:38;;;;;;;2.40;1.40;;;7.70;99.90;;;;;;4160603;28;20485;-59
2023/11/16 00:46:43;;;;;;;4.07;1.43;;;7.70;99.90;;;;;;4171725;28;20048;-61
2023/11/16 00:48:45;;;;;;;3.10;1.27;;;7.60;99.90;;;;;;4176211;28;20033;-59
2023/11/16 00:50:46;;;;;;;1.57;1.43;;;7.60;99.90;;;;;;4176313;28;20501;-56
2023/11/16 00:52:48;;;;;;;1.43;1.33;;;7.60;99.90;;;;;;4176544;28;20025;-60
2023/11/16 00:54:50;;;;;;;3.00;1.53;;;7.50;99.90;;;;;;4177801;28;20037;-58
2023/11/16 00:56:51;;;;;;;3.07;1.10;;;7.50;99.90;;;;;;4176686;28;20036;-57
2023/11/16 00:58:52;;;;;;;1.57;1.47;;;7.50;99.90;;;;;;4177889;28;20115;-60
2023/11/16 01:00:53;;;;;;;2.93;1.40;;;7.50;99.90;;;;;;4176400;28;20410;-60
2023/11/16 01:02:55;;;;;;;2.90;1.70;;;7.50;99.90;;;;;;4176551;28;20052;-57
2023/11/16 01:04:57;;;;;;;2.80;1.87;;;7.50;99.90;;;;;;4175859;28;20028;-59
2023/11/16 01:06:58;;;;;;;2.60;1.77;;;7.50;99.90;;;;;;4177114;28;20078;-60
2023/11/16 01:08:59;;;;;;;1.13;0.93;;;7.50;99.90;;;;;;4177051;28;20454;-58
2023/11/16 01:11:03;;;;;;;2.27;1.30;;;7.50;99.90;;;;;;4175788;28;20025;-59
2023/11/16 01:13:07;;;;;;;3.00;1.07;;;7.50;99.90;;;;;;4176449;28;20542;-60
2023/11/16 01:15:10;;;;;;;2.73;1.30;;;7.50;99.90;;;;;;4175971;28;20098;-58
2023/11/16 01:17:18;;;;;;;1.33;1.00;;;7.50;99.90;;;;;;4177212;28;20037;-62
2023/11/16 01:19:25;;;;;;;1.60;1.40;;;7.60;99.90;;;;;;4175431;28;20025;-62
2023/11/16 01:21:26;;;;;;;1.83;1.40;;;7.50;99.90;;;;;;4177452;28;20473;-61
2023/11/16 01:23:27;;;;;;;2.40;1.63;;;7.50;99.90;;;;;;4175658;28;20074;-61
2023/11/16 01:25:32;;;;;;;1.50;1.40;;;7.60;99.90;;;;;;4176761;28;20559;-61
2023/11/16 01:27:33;;;;;;;2.30;1.80;;;7.50;99.90;;;;;;4176535;28;20013;-56
2023/11/16 01:29:34;;;;;;;1.60;1.50;;;7.60;99.90;;;;;;4176734;28;20037;-61
2023/11/16 01:31:40;;;;;;;1.40;1.30;;;7.60;99.90;;;;;;4176293;28;20033;-61
2023/11/16 01:33:42;;;;;;;1.50;1.40;;;7.60;99.90;;;;;;4179974;28;20052;-57
2023/11/16 01:35:44;;;;;;;1.63;1.40;;;7.60;99.90;;;;;;4181197;28;20025;-60
2023/11/16 01:37:45;;;;;;;2.33;1.30;;;7.60;99.90;;;;;;4182732;28;20577;-63
2023/11/16 01:39:47;;;;;;;1.30;1.10;;;7.60;99.90;;;;;;4180680;28;20033;-58
2023/11/16 01:41:48;;;;;;;2.17;1.50;;;7.60;99.90;;;;;;4182590;28;20029;-61
2023/11/16 01:43:49;;;;;;;2.03;1.37;;;7.60;99.90;;;;;;4181630;28;20102;-57
2023/11/16 01:45:50;;;;;;;3.20;1.53;;;7.60;99.90;;;;;;4181458;28;20045;-59
2023/11/16 01:47:51;;;;;;;2.00;1.37;;;7.60;99.90;;;;;;4182786;28;20118;-60
2023/11/16 01:49:54;;;;;;;2.03;1.20;;;7.50;99.90;;;;;;4181099;28;20082;-60
2023/11/16 01:51:57;;;;;;;1.90;1.33;;;7.50;99.90;;;;;;4182762;28;20029;-60
2023/11/16 01:54:00;;;;;;;1.50;1.40;;;7.50;99.90;;;;;;4181595;28;20041;-60
2023/11/16 01:56:02;;;;;;;5.30;2.10;;;7.40;99.90;;;;;;4182257;28;20106;-59
2023/11/16 01:58:06;;;;;;;2.13;1.70;;;7.40;99.90;;;;;;4181064;28;20102;-63
2023/11/16 02:00:08;;;;;;;2.63;2.43;;;7.40;99.90;;;;;;4182459;28;20630;-60
2023/11/16 02:02:11;;;;;;;2.63;2.20;;;7.40;99.90;;;;;;4181594;28;20095;-60
2023/11/16 02:04:14;;;;;;;1.93;1.70;;;7.40;99.90;;;;;;4182831;28;20055;-61
2023/11/16 02:06:15;;;;;;;3.00;2.13;;;7.30;99.90;;;;;;4181587;28;20020;-63
2023/11/16 02:08:17;;;;;;;2.83;1.90;;;7.30;99.90;;;;;;4182715;28;20040;-62
2023/11/16 02:10:18;;;;;;;1.53;1.40;;;7.30;99.90;;;;;;4181768;28;20029;-57
2023/11/16 02:12:19;;;;;;;8.97;2.80;;;7.20;99.90;;;;;;4182693;28;20040;-61
2023/11/16 02:14:20;;;;;;;3.23;2.63;;;7.30;99.90;;;;;;4181337;28;20083;-61
2023/11/16 02:16:21;;;;;;;3.60;3.30;;;7.30;99.90;;;;;;4181188;28;20087;-60
2023/11/16 02:18:23;;;;;;;3.50;3.10;;;7.30;99.90;;;;;;4181608;28;20091;-61
2023/11/16 02:20:25;;;;;;;2.70;2.50;;;7.30;99.90;;;;;;4182116;28;20021;-63
2023/11/16 02:22:29;;;;;;;2.43;2.00;;;7.30;99.90;;;;;;4180609;28;20057;-61
2023/11/16 02:24:30;;;;;;;2.03;1.83;;;7.30;99.90;;;;;;4180683;28;20072;-57
2023/11/16 02:26:33;;;;;;;1.33;1.20;;;7.30;99.90;;;;;;4182493;28;20443;-59
2023/11/16 02:28:36;;;;;;;2.90;1.30;;;7.30;99.90;;;;;;4180585;28;20373;-60
2023/11/16 02:30:38;;;;;;;2.10;1.47;;;7.30;99.90;;;;;;4181707;28;20098;-60
2023/11/16 02:32:39;;;;;;;1.70;1.60;;;7.40;99.90;;;;;;4181350;28;20040;-55
2023/11/16 02:34:40;;;;;;;1.90;1.67;;;7.30;99.90;;;;;;4182279;28;20024;-59
2023/11/16 02:36:41;;;;;;;2.67;1.37;;;7.30;99.90;;;;;;4170544;28;20041;-60
2023/11/16 02:38:43;;;;;;;2.30;1.90;;;7.30;99.90;;;;;;4182412;28;20113;-54
2023/11/16 02:40:44;;;;;;;1.70;1.60;;;7.20;99.90;;;;;;4181290;28;20449;-60
2023/11/16 02:42:47;;;;;;;1.97;1.70;;;7.20;99.90;;;;;;4181536;28;20485;-61
2023/11/16 02:44:48;;;;;;;2.90;1.73;;;7.20;99.90;;;;;;4179486;28;20013;-61
2023/11/16 02:46:49;;;;;;;2.00;1.80;;;7.20;99.90;;;;;;4178662;28;20068;-61
2023/11/16 02:48:50;;;;;;;1.83;1.73;;;7.20;99.90;;;;;;4178191;28;20068;-62
2023/11/16 02:50:52;;;;;;;2.30;1.97;;;7.20;99.90;;;;;;4179684;28;20041;-55
2023/11/16 02:52:53;;;;;;;2.13;1.30;;;7.20;99.90;;;;;;4178510;28;20116;-59
2023/11/16 02:54:54;;;;;;;4.40;1.20;;;7.20;99.90;;;;;;4176195;28;20052;-59
2023/11/16 02:56:56;;;;;;;1.70;1.20;;;7.10;99.90;;;;;;4179593;28;20037;-61
2023/11/16 02:58:57;;;;;;;1.53;1.13;;;7.10;99.90;;;;;;4178793;28;20469;-62
2023/11/16 03:00:59;;;;;;;2.07;1.60;;;7.00;99.90;;;;;;4179573;28;20033;-59
2023/11/16 03:03:05;;;;;;;2.00;1.43;;;7.10;99.90;;;;;;4160640;28;20548;-62
2023/11/16 03:05:10;;;;;;;1.60;0.90;;;7.10;99.90;;;;;;4178619;28;20102;-61
2023/11/16 03:07:11;;;;;;;2.43;1.20;;;7.10;99.90;;;;;;4178233;28;20041;-63
2023/11/16 03:09:16;;;;;;;1.03;1.00;;;7.10;99.90;;;;;;4179512;28;20037;-63
2023/11/16 03:11:17;;;;;;;1.80;1.50;;;7.10;99.90;;;;;;4178306;28;20032;-60
2023/11/16 03:13:18;;;;;;;1.83;1.60;;;7.10;99.90;;;;;;4179232;28;20087;-59
2023/11/16 03:15:19;;;;;;;1.60;1.20;;;7.10;99.90;;;;;;4178127;28;20116;-61
2023/11/16 03:17:22;;;;;;;1.40;1.30;;;7.10;99.90;;;;;;4178741;28;20048;-63
2023/11/16 03:19:24;;;;;;;1.40;1.30;;;7.20;99.90;;;;;;4176139;28;20018;-57
2023/11/16 03:21:25;;;;;;;2.00;1.20;;;7.20;99.90;;;;;;4179088;28;20029;-61
2023/11/16 03:23:27;;;;;;;1.50;1.40;;;7.20;99.90;;;;;;4178336;28;20561;-63
2023/11/16 03:25:32;;;;;;;2.03;1.53;;;7.20;99.90;;;;;;4178559;28;20040;-60
2023/11/16 03:27:33;;;;;;;1.83;1.60;;;7.20;99.90;;;;;;4178940;28;20025;-60
2023/11/16 03:29:35;;;;;;;2.27;1.60;;;7.20;99.90;;;;;;4177852;28;20022;-59
2023/11/16 03:31:36;;;;;;;1.20;1.10;;;7.20;99.90;;;;;;4178876;28;20083;-62
2023/11/16 03:33:37;;;;;;;1.57;1.33;;;7.20;99.90;;;;;;4177238;28;20029;-60
2023/11/16 03:35:39;;;;;;;1.33;1.23;;;7.20;99.90;;;;;;4178810;28;20037;-59
2023/11/16 03:37:43;;;;;;;2.00;1.47;;;7.20;99.90;;;;;;4177643;28;20029;-61
2023/11/16 03:39:44;;;;;;;3.40;1.40;;;7.30;99.90;;;;;;4178506;28;20079;-56
2023/11/16 03:41:45;;;;;;;3.27;1.87;;;7.30;99.90;;;;;;4177536;28;20063;-63
2023/11/16 03:43:46;;;;;;;1.90;1.67;;;7.20;99.90;;;;;;4178716;28;20131;-61
2023/11/16 03:45:47;;;;;;;2.50;2.07;;;7.20;99.90;;;;;;4177598;28;20037;-60
2023/11/16 03:47:49;;;;;;;1.47;1.37;;;7.20;99.90;;;;;;4178805;28;20653;-63
2023/11/16 03:49:52;;;;;;;3.07;1.73;;;7.20;99.90;;;;;;4177706;28;20098;-60
2023/11/16 03:51:53;;;;;;;2.00;1.80;;;7.20;99.90;;;;;;4178159;28;20523;-60
2023/11/16 03:53:55;;;;;;;2.60;1.67;;;7.20;99.90;;;;;;4177077;28;20083;-59
2023/11/16 03:55:57;;;;;;;3.60;3.10;;;7.20;99.90;;;;;;4177033;28;20037;-59
2023/11/16 03:57:58;;;;;;;1.67;1.47;;;7.10;99.90;;;;;;4177457;28;20029;-58
2023/11/16 03:59:59;;;;;;;2.30;2.10;;;7.00;99.90;;;;;;4177480;28;20074;-59
2023/11/16 04:02:04;;;;;;;3.73;2.67;;;6.90;99.90;;;;;;4177101;28;20029;-57
2023/11/16 04:04:10;;;;;;;2.90;2.30;;;6.90;99.90;;;;;;4177344;28;20091;-59
2023/11/16 04:06:18;;;;;;;3.93;1.93;;;6.80;99.90;;;;;;4177992;28;20114;-60
2023/11/16 04:08:20;;;;;;;2.67;1.80;;;6.80;99.90;;;;;;4176784;28;20102;-60
2023/11/16 04:10:21;;;;;;;2.00;1.67;;;6.80;99.90;;;;;;4178492;28;20033;-60
2023/11/16 04:12:23;;;;;;;4.30;2.17;;;6.70;99.90;;;;;;4176911;28;20045;-58
2023/11/16 04:14:24;;;;;;;3.10;2.13;;;6.80;99.90;;;;;;4177212;28;20075;-60
2023/11/16 04:16:25;;;;;;;2.30;2.03;;;6.80;99.90;;;;;;4176448;28;20032;-60
2023/11/16 04:18:26;;;;;;;3.23;2.00;;;6.70;99.90;;;;;;4173364;28;20033;-58
2023/11/16 04:20:29;;;;;;;2.80;2.23;;;6.70;99.90;;;;;;4176215;28;20114;-59
2023/11/16 04:22:30;;;;;;;4.57;2.40;;;6.70;99.90;;;;;;4176640;28;20025;-57
2023/11/16 04:24:31;;;;;;;3.27;1.80;;;6.70;99.90;;;;;;4176320;28;20048;-61
2023/11/16 04:26:36;;;;;;;5.33;2.80;;;6.70;99.90;;;;;;4178099;28;20044;-58
2023/11/16 04:28:38;;;;;;;4.40;2.93;;;6.70;99.90;;;;;;4176897;28;20114;-59
2023/11/16 04:30:40;;;;;;;4.00;2.80;;;6.70;99.90;;;;;;4177272;28;20053;-60
2023/11/16 04:32:42;;;;;;;2.93;2.63;;;6.70;99.90;;;;;;4177203;28;20025;-58
2023/11/16 04:34:44;;;;;;;3.30;1.97;;;6.70;99.90;;;;;;4177159;28;20029;-62
2023/11/16 04:36:48;;;;;;;5.07;2.00;;;6.70;99.90;;;;;;4177424;28;20036;-59
2023/11/16 04:38:50;;;;;;;1.40;1.07;;;6.70;99.90;;;;;;4176679;28;20025;-60
2023/11/16 04:40:51;;;;;;;1.60;1.40;;;6.70;99.90;;;;;;4176567;28;20087;-58
2023/11/16 04:42:53;;;;;;;1.50;1.40;;;6.70;99.90;;;;;;4176551;28;20493;-59
2023/11/16 04:44:55;;;;;;;1.97;1.67;;;6.70;99.90;;;;;;4177471;28;20106;-61
2023/11/16 04:46:56;;;;;;;2.00;1.80;;;6.80;99.90;;;;;;4176843;28;20078;-63
2023/11/16 04:48:57;;;;;;;3.73;2.23;;;6.80;99.90;;;;;;4177658;28;20025;-62
2023/11/16 04:51:04;;;;;;;2.10;2.00;;;6.80;99.90;;;;;;4176844;28;20045;-60
2023/11/16 04:53:07;;;;;;;3.43;2.50;;;6.80;99.90;;;;;;4176918;28;20024;-59
2023/11/16 04:55:09;;;;;;;2.67;2.40;;;6.80;99.90;;;;;;4176359;28;20432;-62
2023/11/16 04:57:10;;;;;;;4.60;2.13;;;6.80;99.90;;;;;;4177201;28;20094;-61
2023/11/16 04:59:11;;;;;;;3.67;2.50;;;6.90;99.90;;;;;;4174896;28;20049;-56
2023/11/16 05:01:14;;;;;;;3.17;2.57;;;6.80;99.90;;;;;;4176591;28;20045;-59
2023/11/16 05:03:16;;;;;;;3.93;3.03;;;6.80;99.90;;;;;;4175947;28;20098;-60
2023/11/16 05:05:17;;;;;;;3.10;2.83;;;6.80;99.90;;;;;;4177243;28;20025;-60
2023/11/16 05:07:18;;;;;;;3.97;3.07;;;6.80;99.90;;;;;;4176506;28;20435;-61
2023/11/16 05:09:19;;;;;;;2.83;2.63;;;6.80;99.90;;;;;;4176877;28;20025;-62
2023/11/16 05:11:22;;;;;;;3.00;2.70;;;6.80;99.90;;;;;;4176367;28;20046;-61
2023/11/16 05:13:23;;;;;;;3.13;2.67;;;6.80;99.90;;;;;;4176544;28;20066;-60
2023/11/16 05:15:24;;;;;;;3.13;2.63;;;6.80;99.90;;;;;;4177185;28;20492;-60
2023/11/16 05:17:25;;;;;;;3.10;2.40;;;6.80;99.90;;;;;;4175552;28;20038;-63
2023/11/16 05:19:27;;;;;;;4.57;2.27;;;6.80;99.90;;;;;;4159158;28;20083;-60
2023/11/16 05:21:28;;;;;;;3.83;2.60;;;6.80;99.90;;;;;;4175404;28;20549;-59
2023/11/16 05:23:29;;;;;;;3.57;2.67;;;6.80;99.90;;;;;;4177286;28;20033;-62
2023/11/16 05:25:30;;;;;;;3.40;3.10;;;6.80;99.90;;;;;;4174428;28;20048;-60
2023/11/16 05:27:31;;;;;;;3.30;2.60;;;6.80;99.90;;;;;;4168843;28;20041;-63
2023/11/16 05:29:32;;;;;;;4.30;2.90;;;6.80;99.90;;;;;;4163165;28;20092;-59
2023/11/16 05:31:33;;;;;;;3.20;2.90;;;6.80;99.90;;;;;;4159869;28;20482;-60
2023/11/16 05:33:34;;;;;;;3.90;3.30;;;6.80;99.90;;;;;;4170901;28;20065;-58
2023/11/16 05:35:38;;;;;;;5.57;4.43;;;6.80;99.90;;;;;;4176800;28;20112;-59
2023/11/16 05:37:39;;;;;;;4.83;3.50;;;6.80;99.90;;;;;;4175722;28;20095;-60
2023/11/16 05:39:41;;;;;;;4.30;3.53;;;6.80;99.90;;;;;;4176942;28;20029;-62
2023/11/16 05:41:42;;;;;;;4.73;3.67;;;6.80;99.90;;;;;;4175715;28;20476;-59
2023/11/16 05:43:43;;;;;;;6.50;5.20;;;6.90;99.90;;;;;;4158017;28;20131;-57
2023/11/16 05:45:44;;;;;;;6.20;4.83;;;6.90;99.90;;;;;;4176444;28;20051;-61
2023/11/16 05:47:45;;;;;;;7.67;4.50;;;6.90;99.90;;;;;;4175313;28;20093;-61
2023/11/16 05:49:47;;;;;;;5.30;4.30;;;6.90;99.90;;;;;;4177377;28;20033;-61
2023/11/16 05:51:48;;;;;;;6.20;4.83;;;6.90;99.90;;;;;;4175493;28;20056;-60
2023/11/16 05:53:49;;;;;;;8.17;5.40;;;6.90;99.90;;;;;;4175705;28;20051;-61
2023/11/16 05:55:52;;;;;;;7.97;5.00;;;6.90;99.90;;;;;;4175789;28;20037;-60
2023/11/16 05:57:53;;;;;;;6.30;4.50;;;6.90;99.90;;;;;;4176853;28;20079;-58
2023/11/16 05:59:54;;;;;;;5.00;4.23;;;6.90;99.90;;;;;;4175360;28;20367;-59
2023/11/16 06:01:56;;;;;;;6.47;4.50;;;6.90;99.90;;;;;;4176418;28;20079;-62
2023/11/16 06:03:57;;;;;;;5.67;4.00;;;6.90;99.90;;;;;;4175316;28;20049;-61
2023/11/16 06:05:58;;;;;;;6.13;5.10;;;7.00;99.90;;;;;;4176751;28;20029;-62
2023/11/16 06:07:59;;;;;;;9.67;5.40;;;7.00;99.90;;;;;;4175954;28;20474;-61
2023/11/16 06:10:01;;;;;;;5.37;4.17;;;7.00;99.90;;;;;;4176199;28;20114;-62
2023/11/16 06:12:03;;;;;;;5.27;3.73;;;7.00;99.90;;;;;;4176280;28;20139;-64
2023/11/16 06:14:08;;;;;;;3.93;3.37;;;7.00;99.90;;;;;;4176012;28;20375;-58
2023/11/16 06:16:12;;;;;;;6.97;4.23;;;7.00;99.90;;;;;;4176391;28;20462;-59
2023/11/16 06:18:13;;;;;;;5.70;4.50;;;7.00;99.90;;;;;;4175706;28;20174;-62
2023/11/16 06:20:15;;;;;;;8.23;5.13;;;7.10;99.90;;;;;;4177964;28;20045;-61
2023/11/16 06:22:16;;;;;;;8.50;6.20;;;7.10;99.90;;;;;;4178873;28;20885;-62
2023/11/16 06:24:17;;;;;;;10.07;6.47;;;7.10;99.90;;;;;;4179598;28;20412;-60
2023/11/16 06:26:20;;;;;;;7.97;5.10;;;7.10;99.90;;;;;;4178381;28;20098;-61
2023/11/16 06:28:21;;;;;;;6.23;4.20;;;7.10;99.90;;;;;;4179129;28;20087;-61
2023/11/16 06:30:22;;;;;;;4.77;2.93;;;7.10;99.90;;;;;;4177564;28;20049;-62
2023/11/16 06:32:23;;;;;;;1.40;1.30;;;7.10;99.90;;;;;;4179733;28;20090;-61
2023/11/16 06:34:25;;;;;;;1.70;1.27;;;7.10;99.90;;;;;;4152263;28;20096;-62
2023/11/16 06:36:26;;;;;;;2.07;1.20;;;7.00;99.90;;;;;;4171480;28;20049;-62
2023/11/16 06:38:30;;;;;;;1.93;1.40;;;6.90;99.90;;;;;;4146986;28;20079;-59
2023/11/16 06:40:31;;;;;;;3.77;1.90;;;7.00;99.90;;;;;;4175946;28;20074;-61
2023/11/16 06:42:36;;;;;;;2.27;1.77;;;7.00;99.90;;;;;;4166935;28;20450;-61
2023/11/16 06:44:37;;;;;;;2.47;1.63;;;7.00;99.90;;;;;;4161773;28;20057;-62
2023/11/16 06:46:38;;;;;;;4.03;1.73;;;7.00;99.90;;;;;;4174890;28;20041;-58
2023/11/16 06:48:40;;;;;;;1.80;1.63;;;7.00;99.90;;;;;;4178587;28;20124;-60
2023/11/16 06:50:41;;;;;;;2.63;1.80;;;7.00;99.90;;;;;;4179826;28;20535;-60
2023/11/16 06:52:43;;;;;;;3.97;1.80;;;7.00;99.90;;;;;;4170867;28;20114;-61
2023/11/16 06:54:44;;;;;;;2.53;2.03;;;7.00;99.90;;;;;;4178250;28;20040;-61
2023/11/16 06:56:46;;;;;;;2.00;1.67;;;7.00;99.90;;;;;;4178204;28;20082;-60
2023/11/16 06:58:47;;;;;;;2.70;1.77;;;7.10;99.90;;;;;;4178965;28;20033;-58
2023/11/16 07:00:54;;;;;;;3.07;1.67;;;7.10;99.90;;;;;;4177574;28;20507;-61
2023/11/16 07:02:55;;;;;;;2.17;1.53;;;7.10;99.90;;;;;;4179697;28;20087;-60
2023/11/16 07:04:58;;;;;;;1.70;1.40;;;7.10;99.90;;;;;;4178029;28;20169;-61
2023/11/16 07:07:00;;;;;;;2.50;1.63;;;7.10;99.90;;;;;;4181036;28;20061;-60
2023/11/16 07:09:01;;;;;;;1.83;1.67;;;7.10;99.90;;;;;;4171094;28;20029;-60
2023/11/16 07:11:02;;;;;;;3.83;1.80;;;7.20;99.90;;;;;;4169523;28;20091;-59
2023/11/16 07:13:03;;;;;;;3.43;1.83;;;7.20;99.90;;;;;;4176498;28;20049;-57
2023/11/16 07:15:05;;;;;;;3.10;1.50;;;7.10;99.90;;;;;;4177833;28;20166;-59
2023/11/16 07:17:10;;;;;;;2.63;1.60;;;7.10;99.90;;;;;;4185423;28;20896;-63
2023/11/16 07:19:16;;;;;;;2.37;1.70;;;7.20;99.90;;;;;;4177599;28;20523;-62
2023/11/16 07:21:18;;;;;;;3.07;1.97;;;7.20;99.90;;;;;;4187571;28;20024;-57
2023/11/16 07:23:20;;;;;;;2.50;2.00;;;7.20;99.90;;;;;;4180894;28;20070;-62
2023/11/16 07:25:22;;;;;;;3.60;2.40;;;7.20;99.90;;;;;;4178312;28;20363;-59
2023/11/16 07:27:23;;;;;;;3.17;2.50;;;7.20;99.90;;;;;;4177280;28;20431;-65
2023/11/16 07:29:25;;;;;;;2.30;2.10;;;7.10;99.90;;;;;;4178106;28;20079;-63
2023/11/16 07:31:28;;;;;;;2.10;1.90;;;7.20;99.90;;;;;;4180100;28;20637;-63
2023/11/16 07:33:29;;;;;;;2.30;2.10;;;7.20;99.90;;;;;;4178847;28;20074;-64
2023/11/16 07:35:30;;;;;;;3.13;1.80;;;7.20;99.90;;;;;;4177655;28;20603;-62
2023/11/16 07:37:32;;;;;;;6.60;2.10;;;7.30;99.90;;;;;;4178959;28;20082;-65
2023/11/16 07:39:34;;;;;;;4.23;2.07;;;7.40;99.90;;;;;;4176665;28;20065;-64
2023/11/16 07:41:36;;;;;;;3.57;2.57;;;7.40;99.90;;;;;;4177664;28;20032;-61
2023/11/16 07:43:43;;;;;;;2.23;2.03;;;7.40;99.90;;;;;;4165434;28;20092;-62
2023/11/16 07:45:44;;;;;;;4.07;1.90;;;7.40;99.90;;;;;;4162774;28;20089;-59
2023/11/16 07:47:47;;;;;;;4.87;2.17;;;7.40;99.90;;;;;;4177166;28;20036;-60
2023/11/16 07:49:51;;;;;;;2.60;2.23;;;7.40;99.90;;;;;;4176915;28;20538;-61
2023/11/16 07:51:54;;;;;;;3.60;1.90;;;7.50;99.90;;;;;;4177319;28;20497;-59
2023/11/16 07:53:57;;;;;;;4.80;1.90;;;7.60;99.90;;;;;;4177520;28;20778;-61
2023/11/16 07:56:05;;;;;;;2.47;2.00;;;7.60;99.90;;;;;;4159811;28;20076;-56
2023/11/16 07:58:12;;;;;;;2.10;1.90;;;7.60;99.90;;;;;;4176286;28;20134;-60
2023/11/16 08:00:22;;;;;;;3.57;2.77;;;7.70;99.90;;;;;;4177920;28;20393;-60
2023/11/16 08:02:38;;;;;;;3.03;2.70;;;7.80;99.90;;;;;;4144790;28;20433;-60
2023/11/16 08:04:39;;;;;;;2.70;2.23;;;7.80;99.90;;;;;;4143525;28;20430;-59
2023/11/16 08:06:40;;;;;;;3.37;2.27;;;7.80;99.90;;;;;;4176866;28;20394;-62
2023/11/16 08:08:45;;;;;;;4.33;2.10;;;7.80;99.90;;;;;;4177990;28;20087;-62
2023/11/16 08:10:48;;;;;;;2.90;2.10;;;7.80;99.90;;;;;;4177063;28;20037;-59
2023/11/16 08:12:53;;;;;;;2.07;1.80;;;8.00;99.90;;;;;;4177849;28;20021;-61
2023/11/16 08:14:54;;;;;;;4.10;2.33;;;8.20;99.90;;;;;;4176824;28;20506;-59
2023/11/16 08:16:56;;;;;;;6.77;2.00;;;8.30;99.90;;;;;;4178270;28;20037;-58
2023/11/16 08:18:57;;;;;;;4.17;1.90;;;8.30;99.90;;;;;;4176848;28;20099;-61
2023/11/16 08:20:58;;;;;;;3.30;2.00;;;8.10;99.90;;;;;;4171050;28;20033;-58
2023/11/16 08:23:00;;;;;;;2.20;1.50;;;8.10;99.90;;;;;;4176493;28;20362;-60
2023/11/16 08:25:01;;;;;;;3.07;1.50;;;8.20;99.90;;;;;;4177966;28;20102;-63
2023/11/16 08:27:03;;;;;;;2.90;1.80;;;8.20;99.90;;;;;;4173271;28;20453;-60
2023/11/16 08:29:04;;;;;;;3.77;1.47;;;8.20;99.90;;;;;;4176491;28;20045;-58
2023/11/16 08:31:06;;;;;;;2.30;2.00;;;8.20;99.90;;;;;;4175272;28;20098;-63
2023/11/16 08:33:08;;;;;;;2.67;1.80;;;8.20;99.90;;;;;;4159624;28;20103;-63
2023/11/16 08:35:10;;;;;;;4.20;2.97;;;8.20;99.90;;;;;;4176632;28;20028;-60
2023/11/16 08:37:13;;;;;;;6.83;4.27;;;8.30;99.90;;;;;;4176607;28;20045;-61
2023/11/16 08:39:17;;;;;;;3.70;2.50;;;8.30;99.90;;;;;;4176998;28;20095;-59
2023/11/16 08:41:18;;;;;;;5.73;3.53;;;8.30;99.90;;;;;;4176524;28;20029;-60
2023/11/16 08:43:20;;;;;;;3.37;2.60;;;8.40;99.90;;;;;;4176331;28;20102;-64
2023/11/16 08:45:24;;;;;;;9.10;2.97;;;8.40;99.90;;;;;;4176884;28;20551;-60
2023/11/16 08:47:27;;;;;;;4.33;2.20;;;8.60;99.90;;;;;;4177849;28;20021;-61
2023/11/16 08:49:31;;;;;;;4.73;2.20;;;8.80;99.90;;;;;;4176202;28;20048;-60
2023/11/16 08:51:33;;;;;;;2.50;2.13;;;8.90;99.90;;;;;;4190894;28;20435;-61
2023/11/16 08:53:39;;;;;;;3.37;2.40;;;9.10;99.90;;;;;;4192398;28;20048;-61
2023/11/16 08:55:40;;;;;;;2.90;1.87;;;9.20;99.90;;;;;;4194233;28;20469;-63
2023/11/16 08:57:42;;;;;;;2.03;1.50;;;9.30;99.90;;;;;;4191411;28;20091;-60
2023/11/16 08:59:58;;;;;;;3.47;1.90;;;9.50;99.90;;;;;;4174034;28;20029;-61
2023/11/16 09:02:00;;;;;;;1.73;1.53;;;9.60;99.90;;;;;;4175867;28;20052;-62
2023/11/16 09:04:01;;;;;;;6.07;1.93;;;9.80;99.90;;;;;;4177603;28;20028;-63
2023/11/16 09:06:06;;;;;;;2.50;1.77;;;10.00;99.90;;;;;;4174632;28;20110;-55
2023/11/16 09:08:11;;;;;;;2.63;2.13;;;10.30;99.90;;;;;;4177700;28;20032;-61
2023/11/16 09:10:19;;;;;;;4.03;1.80;;;10.70;99.90;;;;;;4176079;28;20095;-62
2023/11/16 09:12:20;;;;;;;2.70;1.80;;;10.90;99.90;;;;;;4176781;28;20092;-61
2023/11/16 09:14:21;;;;;;;3.53;2.20;;;11.00;99.90;;;;;;4176514;28;20547;-63
2023/11/16 09:16:22;;;;;;;2.50;1.97;;;11.10;99.90;;;;;;4176364;28;20041;-60
2023/11/16 09:18:25;;;;;;;2.77;2.03;;;11.10;99.90;;;;;;4174744;28;20485;-61
2023/11/16 09:20:29;;;;;;;1.50;1.40;;;11.00;99.90;;;;;;4177025;28;20025;-60
2023/11/16 09:22:33;;;;;;;1.97;1.83;;;11.00;99.90;;;;;;4177168;28;20385;-60
2023/11/16 09:24:36;;;;;;;1.70;1.57;;;11.00;99.90;;;;;;4176053;28;20037;-61
2023/11/16 09:26:38;;;;;;;2.10;1.60;;;11.00;99.90;;;;;;4174711;28;20161;-62
2023/11/16 09:28:39;;;;;;;2.20;1.90;;;11.10;99.90;;;;;;4175252;28;20054;-62
2023/11/16 09:30:43;;;;;;;2.67;2.00;;;11.10;99.90;;;;;;4176239;28;20156;-58
2023/11/16 09:32:44;;;;;;;2.27;1.90;;;11.10;99.90;;;;;;4174709;28;20083;-60
2023/11/16 09:34:46;;;;;;;5.27;2.40;;;11.30;99.90;;;;;;4175825;28;20646;-61
2023/11/16 09:36:54;;;;;;;2.03;1.77;;;11.30;99.90;;;;;;4115389;28;20013;-59
2023/11/16 09:39:00;;;;;;;3.27;2.00;;;11.20;99.90;;;;;;4100857;28;20292;-60
2023/11/16 09:41:51;;;;;;;2.80;2.10;;;11.30;99.90;;;;;;4086016;28;20342;-60
2023/11/16 09:47:02;;;;;;;2.43;1.93;;;11.40;99.90;;;;;;4119611;28;20034;-60
2023/11/16 09:49:05;;;;;;;4.27;1.97;;;11.30;99.90;;;;;;4144349;28;20080;-60
2023/11/16 09:51:08;;;;;;;3.83;2.20;;;11.10;99.90;;;;;;4143064;28;20034;-63
2023/11/16 09:53:16;;;;;;;2.13;1.67;;;10.90;99.90;;;;;;4152722;28;20030;-62
2023/11/16 09:55:21;;;;;;;2.50;1.80;;;10.70;99.90;;;;;;4161465;28;20041;-60
2023/11/16 09:57:25;;;;;;;3.37;1.90;;;10.50;99.90;;;;;;4164003;28;20042;-63
2023/11/16 09:59:34;;;;;;;1.40;1.30;;;10.40;99.90;;;;;;4162349;28;20115;-62
2023/11/16 10:01:38;;;;;;;1.07;0.97;;;10.20;99.90;;;;;;4146313;28;20100;-64
2023/11/16 10:03:40;;;;;;;4.63;1.23;;;10.10;99.90;;;;;;4162133;28;20045;-63
2023/11/16 10:05:43;;;;;;;2.40;1.93;;;10.00;99.90;;;;;;4163193;28;20042;-61
2023/11/16 10:07:46;;;;;;;3.50;2.80;;;9.90;99.90;;;;;;4162305;28;20042;-60
2023/11/16 10:09:47;;;;;;;4.57;1.60;;;10.00;99.90;;;;;;4163506;28;20465;-62
2023/11/16 10:11:50;;;;;;;1.50;1.30;;;10.10;99.90;;;;;;4162263;28;20816;-60
2023/11/16 10:13:54;;;;;;;6.80;3.77;;;10.20;99.90;;;;;;4162856;28;20026;-58
2023/11/16 10:16:09;;;;;;;2.70;2.03;;;10.30;99.90;;;;;;4162937;28;20022;-61
2023/11/16 10:18:10;;;;;;;2.00;1.83;;;10.40;99.90;;;;;;4162899;28;20034;-60
2023/11/16 10:20:12;;;;;;;3.20;2.30;;;10.40;99.90;;;;;;4162649;28;20063;-62
2023/11/16 10:22:13;;;;;;;3.37;1.70;;;10.30;99.90;;;;;;4162251;28;20445;-63
2023/11/16 10:24:15;;;;;;;2.40;1.37;;;10.20;99.90;;;;;;4162071;28;20049;-62
2023/11/16 10:26:18;;;;;;;2.80;0.90;;;10.20;99.90;;;;;;4162036;28;20087;-59
2023/11/16 10:28:22;;;;;;;3.07;1.10;;;10.20;99.90;;;;;;4162877;28;20038;-58
2023/11/16 10:30:24;;;;;;;2.40;1.10;;;10.10;99.90;;;;;;4162513;28;20037;-63
2023/11/16 10:32:29;;;;;;;1.00;0.90;;;10.10;99.90;;;;;;4163423;28;20429;-61
2023/11/16 10:34:31;;;;;;;1.50;1.10;;;10.20;99.90;;;;;;4160693;28;20067;-64
2023/11/16 10:36:33;;;;;;;1.47;0.80;;;10.20;99.90;;;;;;4162778;28;20520;-61
2023/11/16 10:38:36;;;;;;;2.27;1.10;;;10.30;99.90;;;;;;4143525;28;20092;-62
2023/11/16 10:40:39;;;;;;;4.33;1.90;;;10.20;99.90;;;;;;4163430;28;20029;-61
2023/11/16 10:42:41;;;;;;;1.80;1.37;;;10.40;99.90;;;;;;4161431;28;20048;-62
2023/11/16 10:44:43;;;;;;;1.40;1.30;;;10.40;99.90;;;;;;4163177;28;20029;-63
2023/11/16 10:46:45;;;;;;;1.20;1.00;;;10.60;99.90;;;;;;4161543;28;20037;-60
2023/11/16 10:48:49;;;;;;;3.77;1.37;;;10.60;99.90;;;;;;4163103;28;20552;-61